Time;durP1;ratioP1;P1;durP2;ratioP2;P2;SDS_P1;SDS_P2;PMS_P1;PMS_P2;Temp;Humidity;BMP_temperature;BMP_pressure;BME280_temperature;BME280_humidity;BME280_pressure;Samples;Min_cycle;Max_cycle;Signal;HPM_P1;HPM_P2
2021/11/12 00:13:40;;;;;;;37.33;18.98;;;;;;;9.66;82.22;102225.88;5057076;28;20103;-71
2021/11/12 00:16:06;;;;;;;35.75;19.38;;;;;;;9.43;82.37;102222.91;5057111;28;20035;-71
2021/11/12 00:18:33;;;;;;;38.33;19.73;;;;;;;9.66;81.96;102227.66;5056596;28;20107;-71
2021/11/12 00:21:01;;;;;;;39.33;19.35;;;;;;;9.73;81.63;102223.56;5038703;28;20021;-71
2021/11/12 00:23:28;;;;;;;38.95;19.27;;;;;;;9.54;82.13;102224.47;5056812;28;20432;-70
2021/11/12 00:25:54;;;;;;;39.70;20.00;;;;;;;9.55;82.37;102215.78;5056514;28;20096;-71
2021/11/12 00:28:22;;;;;;;43.97;20.27;;;;;;;9.57;81.87;102213.84;5056519;28;20483;-70
2021/11/12 00:33:42;;;;;;;41.60;20.40;;;;;;;9.55;82.41;102213.22;5056556;28;20037;-71
2021/11/12 00:38:56;;;;;;;;;;;;;;;9.58;81.97;102209.50;5057183;28;20041;-71
2021/11/12 00:41:44;;;;;;;47.47;21.38;;;;;;;9.57;81.70;102213.84;5038283;28;19924;-71
2021/11/12 00:47:06;;;;;;;43.78;21.33;;;;;;;9.70;81.24;102210.94;5056924;28;20079;-71
2021/11/12 00:49:36;;;;;;;46.22;22.02;;;;;;;9.63;81.29;102208.09;5056119;28;20029;-71
2021/11/12 00:52:09;;;;;;;42.63;22.35;;;;;;;9.63;81.46;102207.31;5055900;28;20035;-71
2021/11/12 00:54:34;;;;;;;49.75;23.48;;;;;;;9.56;81.76;102195.97;5038119;28;20120;-71
2021/11/12 00:57:00;;;;;;;45.90;22.83;;;;;;;9.48;81.49;102201.81;5037992;28;20150;-70
2021/11/12 00:59:25;;;;;;;50.42;23.48;;;;;;;9.48;81.82;102192.31;5055620;28;20154;-71
2021/11/12 01:01:52;;;;;;;46.33;23.05;;;;;;;9.38;82.04;102209.63;5055706;28;20098;-71
2021/11/12 01:04:20;;;;;;;47.58;24.45;;;;;;;9.43;81.65;102206.59;5055786;28;20091;-71
2021/11/12 01:06:47;;;;;;;49.35;24.15;;;;;;;9.51;81.48;102209.28;5037816;28;20021;-71
2021/11/12 01:09:16;;;;;;;48.90;24.80;;;;;;;9.42;81.70;102198.06;5037675;28;20514;-70
2021/11/12 01:11:43;;;;;;;54.95;25.00;;;;;;;9.54;81.18;102193.50;5055665;28;20025;-70
2021/11/12 01:14:11;;;;;;;50.03;25.35;;;;;;;9.48;81.95;102200.06;5037574;28;20031;-71
2021/11/12 01:16:37;;;;;;;53.50;25.08;;;;;;;9.60;81.48;102200.66;5037556;28;20067;-71
2021/11/12 01:19:04;;;;;;;49.22;26.13;;;;;;;9.52;81.27;102202.34;5055536;28;20064;-71
2021/11/12 01:21:29;;;;;;;53.53;26.02;;;;;;;9.50;80.99;102189.59;5037605;28;20028;-71
2021/11/12 01:23:55;;;;;;;49.28;25.50;;;;;;;9.46;81.26;102196.78;5055384;28;20361;-72
2021/11/12 01:26:24;;;;;;;49.75;25.95;;;;;;;9.52;81.34;102192.03;5055368;28;20463;-71
2021/11/12 01:28:50;;;;;;;54.45;26.13;;;;;;;9.54;80.92;102190.13;5037373;28;20163;-70
2021/11/12 01:31:16;;;;;;;56.20;25.90;;;;;;;9.51;81.18;102190.41;5037698;28;20040;-71
2021/11/12 01:33:43;;;;;;;48.05;25.17;;;;;;;9.47;81.46;102187.31;5055754;28;20021;-72
2021/11/12 01:38:41;;;;;;;54.42;26.77;;;;;;;9.32;81.18;102176.69;5055152;28;20377;-71
2021/11/12 01:41:06;;;;;;;53.30;27.90;;;;;;;9.34;81.69;102179.09;5055099;28;20027;-71
2021/11/12 01:43:39;;;;;;;53.17;27.02;;;;;;;9.36;81.21;102172.84;5055268;28;20032;-71
2021/11/12 01:48:51;;;;;;;55.30;26.05;;;;;;;9.42;81.22;102174.84;5055246;28;20033;-71
2021/11/12 01:57:22;;;;;;;53.33;26.55;;;;;;;9.44;80.87;102151.47;5054721;28;20108;-70
2021/11/12 01:59:15;;;;;;;54.13;26.58;;;;;;;9.38;81.21;102150.28;5047193;28;20037;-70
2021/11/12 02:01:51;;;;;;;53.42;26.25;;;;;;;9.54;80.84;102146.25;5036775;28;20044;-70
2021/11/12 02:04:24;;;;;;;56.22;27.98;;;;;;;9.47;81.00;102138.28;5054670;28;20055;-70
2021/11/12 02:06:49;;;;;;;54.83;25.95;;;;;;;9.41;81.19;102150.00;5054639;28;20463;-70
2021/11/12 02:09:19;;;;;;;55.80;27.90;;;;;;;9.39;81.15;102146.75;5033079;28;20053;-70
2021/11/12 02:11:46;;;;;;;54.03;27.02;;;;;;;9.47;80.96;102141.69;5033862;28;20021;-70
2021/11/12 02:14:14;;;;;;;51.58;25.95;;;;;;;9.45;80.83;102129.88;5035092;28;20087;-71
2021/11/12 02:16:45;;;;;;;53.22;25.33;;;;;;;9.24;81.12;102106.94;5034433;28;20025;-70
2021/11/12 02:19:12;;;;;;;45.72;25.45;;;;;;;9.40;80.76;102125.13;5033239;28;20026;-70
2021/11/12 02:22:02;;;;;;;51.05;25.55;;;;;;;9.42;80.87;102130.97;5034440;28;20021;-70
2021/11/12 02:24:26;;;;;;;55.25;25.67;;;;;;;9.34;81.13;102123.16;5034487;28;20035;-70
2021/11/12 02:26:56;;;;;;;49.47;25.05;;;;;;;9.33;81.37;102139.59;5034899;28;20416;-70
2021/11/12 02:29:25;;;;;;;47.67;25.33;;;;;;;9.44;81.17;102136.81;5033018;28;20480;-70
2021/11/12 02:31:51;;;;;;;49.33;24.77;;;;;;;9.47;80.57;102125.38;5032918;28;20022;-70
2021/11/12 02:34:16;;;;;;;50.97;25.23;;;;;;;9.59;79.82;102128.56;5032929;28;20534;-70
2021/11/12 02:36:42;;;;;;;47.60;24.40;;;;;;;9.50;79.90;102125.09;5034124;28;20025;-70
2021/11/12 02:39:11;;;;;;;51.63;25.75;;;;;;;9.44;80.43;102125.69;5034096;28;20029;-70
2021/11/12 02:41:38;;;;;;;52.00;25.98;;;;;;;9.45;80.65;102124.72;5032700;28;20029;-70
2021/11/12 02:44:05;;;;;;;48.45;24.50;;;;;;;9.46;80.43;102113.41;5033334;28;20021;-71
2021/11/12 02:46:30;;;;;;;46.80;24.35;;;;;;;9.44;80.29;102126.47;5033982;28;20029;-70
2021/11/12 02:48:57;;;;;;;49.00;24.55;;;;;;;9.47;80.48;102115.06;5034447;28;20021;-70
2021/11/12 02:51:28;;;;;;;45.53;23.30;;;;;;;9.52;80.04;102119.75;5032490;28;20026;-70
2021/11/12 02:53:55;;;;;;;46.83;24.50;;;;;;;9.41;80.74;102116.47;5033912;28;20357;-71
2021/11/12 02:56:33;;;;;;;52.75;25.08;;;;;;;9.41;80.43;102108.72;5033756;28;20464;-70
2021/11/12 02:59:08;;;;;;;47.67;24.75;;;;;;;9.42;80.42;102094.84;5034114;28;20040;-70
2021/11/12 03:01:41;;;;;;;47.38;23.92;;;;;;;9.36;80.49;102085.13;5033958;28;20022;-70
2021/11/12 03:04:06;;;;;;;;;;;;;;;9.21;81.30;102073.69;5034722;28;20036;-70
2021/11/12 03:06:35;;;;;;;51.03;25.08;;;;;;;9.26;80.85;102074.88;5032358;28;19909;-70
2021/11/12 03:09:01;;;;;;;46.15;23.95;;;;;;;9.23;81.60;102076.91;5039003;28;20128;-70
2021/11/12 03:11:27;;;;;;;49.17;23.27;;;;;;;9.31;81.02;102083.94;5053520;28;20064;-70
2021/11/12 03:13:53;;;;;;;44.83;24.17;;;;;;;9.32;81.16;102090.72;5053405;28;20025;-71
2021/11/12 03:16:19;;;;;;;46.00;24.13;;;;;;;9.34;81.11;102083.63;5053613;28;20034;-70
2021/11/12 03:18:45;;;;;;;46.47;23.52;;;;;;;9.32;81.35;102088.97;5035788;28;20025;-71
2021/11/12 03:21:15;;;;;;;47.22;24.33;;;;;;;9.33;80.68;102075.09;5053284;28;20032;-71
2021/11/12 03:26:39;;;;;;;46.35;23.33;;;;;;;9.18;81.48;102067.06;5053628;28;20025;-70
2021/11/12 03:56:35;;;;;;;39.78;22.58;;;;;;;8.76;83.10;102013.44;5053054;28;20069;-70
2021/11/12 04:01:54;;;;;;;49.58;24.33;;;;;;;8.74;83.07;102001.63;5053108;28;20040;-71
2021/11/12 04:04:42;;;;;;;43.92;23.90;;;;;;;8.62;83.21;101990.72;5053029;28;20028;-70
2021/11/12 04:39:40;;;;;;;54.63;25.00;;;;;;;8.47;83.24;101932.91;5052738;28;20046;-71
2021/11/12 04:49:15;;;;;;;57.33;25.83;;;;;;;8.28;83.46;101926.06;5056768;28;20051;-70
2021/11/12 05:02:54;;;;;;;56.03;27.20;;;;;;;8.16;82.61;101922.06;5056095;28;20487;-71
2021/11/12 05:09:44;;;;;;;55.60;27.52;;;;;;;7.76;83.36;101936.03;5056236;28;20506;-71
2021/11/12 05:26:23;;;;;;;55.17;26.25;;;;;;;7.25;83.07;101925.19;5056192;28;20531;-70
2021/11/12 05:45:43;;;;;;;51.28;25.98;;;;;;;6.75;84.30;101882.44;5053992;28;20036;-69
2021/11/12 05:56:01;;;;;;;54.33;26.67;;;;;;;6.46;84.03;101908.06;5055253;28;20032;-70
2021/11/12 05:58:27;;;;;;;57.95;27.02;;;;;;;6.31;84.21;101910.22;5054762;28;20032;-70
2021/11/12 06:00:52;;;;;;;58.60;27.63;;;;;;;6.42;84.02;101911.88;5054653;28;20020;-70
2021/11/12 06:03:18;;;;;;;57.17;27.05;;;;;;;6.30;84.10;101910.31;5054733;28;20060;-70
2021/11/12 06:05:44;;;;;;;54.85;27.10;;;;;;;6.32;83.96;101899.00;5036705;28;20455;-70
2021/11/12 06:08:10;;;;;;;57.13;27.17;;;;;;;6.22;84.04;101889.66;5054570;28;20024;-70
2021/11/12 06:10:35;;;;;;;56.88;27.50;;;;;;;6.13;84.50;101890.41;5036534;28;20132;-70
2021/11/12 06:13:01;;;;;;;52.88;26.65;;;;;;;6.12;84.11;101894.75;5054449;28;20439;-70
2021/11/12 06:15:27;;;;;;;53.33;27.05;;;;;;;6.03;84.02;101895.53;5054386;28;20060;-70
2021/11/12 06:17:52;;;;;;;52.92;27.00;;;;;;;6.19;83.67;101888.16;5054386;28;20021;-70
2021/11/12 06:20:18;;;;;;;54.85;26.27;;;;;;;6.20;83.27;101886.41;5054294;28;20020;-70
2021/11/12 06:22:43;;;;;;;55.03;27.50;;;;;;;6.04;83.74;101882.59;5036524;28;20058;-70
2021/11/12 06:25:09;;;;;;;47.85;26.88;;;;;;;5.96;83.20;101843.13;5054492;28;20070;-70
2021/11/12 06:27:34;;;;;;;58.97;27.23;;;;;;;5.86;83.59;101840.47;5054210;28;20383;-70
2021/11/12 06:30:00;;;;;;;56.67;27.60;;;;;;;5.84;83.72;101842.34;5054140;28;20029;-70
2021/11/12 06:32:26;;;;;;;52.38;25.88;;;;;;;5.92;83.76;101831.44;5054104;28;20025;-70
2021/11/12 06:34:52;;;;;;;55.58;27.35;;;;;;;5.79;83.87;101847.06;5054074;28;20074;-70
2021/11/12 06:37:17;;;;;;;60.10;27.17;;;;;;;5.56;85.18;101854.94;5054368;28;20028;-70
2021/11/12 06:39:43;;;;;;;54.60;26.85;;;;;;;5.60;84.74;101860.63;5036132;28;20384;-70
2021/11/12 06:42:29;;;;;;;51.50;26.55;;;;;;;5.60;84.83;101864.00;5036073;28;20391;-71
2021/11/12 06:50:12;;;;;;;51.97;26.23;;;;;;;5.51;84.73;101851.13;5053855;28;20035;-71
2021/11/12 06:52:39;;;;;;;59.85;26.58;;;;;;;5.53;84.36;101862.09;5054039;28;20037;-71
2021/11/12 06:55:07;;;;;;;53.75;27.38;;;;;;;4.99;85.76;101815.22;5053611;28;20025;-70
2021/11/12 06:57:33;;;;;;;52.50;27.88;;;;;;;5.45;85.04;101831.94;5035430;28;20033;-71
2021/11/12 06:59:58;;;;;;;56.67;27.20;;;;;;;5.52;84.48;101832.22;5035866;28;20025;-71
2021/11/12 07:02:25;;;;;;;55.38;26.95;;;;;;;5.50;84.36;101819.56;5053735;28;20033;-70
2021/11/12 07:04:50;;;;;;;52.85;26.95;;;;;;;5.36;84.58;101828.38;5035475;28;20025;-70
2021/11/12 07:07:16;;;;;;;55.65;27.08;;;;;;;5.33;84.39;101840.66;5053472;28;20025;-70
2021/11/12 07:09:42;;;;;;;53.53;26.80;;;;;;;5.15;85.11;101840.38;5053257;28;20044;-70
2021/11/12 07:12:08;;;;;;;50.53;26.52;;;;;;;5.18;85.27;101845.28;5053442;28;20087;-71
2021/11/12 07:14:33;;;;;;;54.65;26.60;;;;;;;5.23;84.96;101840.56;5053479;28;20025;-71
2021/11/12 07:16:59;;;;;;;54.35;26.65;;;;;;;5.39;84.84;101833.25;5053235;28;20024;-71
2021/11/12 07:19:24;;;;;;;58.15;26.73;;;;;;;5.13;85.36;101839.72;5035496;28;20025;-71
2021/11/12 07:21:51;;;;;;;55.25;27.63;;;;;;;5.20;85.78;101833.16;5035459;28;20436;-70
2021/11/12 07:24:17;;;;;;;62.75;27.90;;;;;;;5.34;84.96;101824.31;5035439;28;20027;-70
2021/11/12 07:26:43;;;;;;;48.28;25.42;;;;;;;5.07;86.48;101823.09;5035324;28;20020;-70
2021/11/12 07:29:08;;;;;;;57.33;27.42;;;;;;;5.22;84.82;101828.72;5053267;28;20436;-70
2021/11/12 07:31:38;;;;;;;64.15;28.08;;;;;;;5.15;85.75;101818.16;5053316;28;20036;-70
2021/11/12 07:34:03;;;;;;;57.53;27.77;;;;;;;5.27;85.36;101823.22;5053477;28;20074;-70
2021/11/12 07:36:40;;;;;;;57.85;26.85;;;;;;;5.30;84.24;101826.34;5053111;28;20033;-71
2021/11/12 07:39:15;;;;;;;48.25;26.20;;;;;;;5.33;84.32;101838.91;5035316;28;20489;-71
2021/11/12 07:41:54;;;;;;;53.17;26.33;;;;;;;5.59;84.56;101839.28;5035288;28;20032;-70
2021/11/12 07:44:36;;;;;;;58.70;26.48;;;;;;;5.40;84.36;101829.75;5053070;28;20431;-69
2021/11/12 07:47:11;;;;;;;55.95;28.40;;;;;;;5.02;85.64;101832.09;5035104;28;20017;-69
2021/11/12 07:49:37;;;;;;;56.65;27.38;;;;;;;5.04;85.89;101841.28;5052943;28;20517;-70
2021/11/12 07:52:06;;;;;;;58.88;28.85;;;;;;;4.99;85.91;101835.72;5052911;28;20468;-70
2021/11/12 07:54:32;;;;;;;63.70;28.00;;;;;;;5.04;85.72;101838.72;5052813;28;20107;-71
2021/11/12 07:56:59;;;;;;;59.10;29.10;;;;;;;5.31;84.83;101842.53;5034979;28;20419;-71
2021/11/12 07:59:25;;;;;;;57.60;28.92;;;;;;;5.24;85.24;101837.09;5053608;28;20155;-71
2021/11/12 08:01:50;;;;;;;62.92;28.60;;;;;;;5.05;85.10;101821.59;5052841;28;20051;-70
2021/11/12 08:04:15;;;;;;;61.63;29.52;;;;;;;4.97;86.76;101830.69;5052805;28;20025;-71
2021/11/12 08:06:40;;;;;;;63.85;30.13;;;;;;;4.96;85.84;101828.28;5034908;28;20173;-70
2021/11/12 08:09:12;;;;;;;67.40;30.05;;;;;;;4.87;87.34;101829.84;5054594;28;20045;-70
2021/11/12 08:11:44;;;;;;;78.55;32.83;;;;;;;4.84;87.77;101804.47;5056605;28;20033;-70
2021/11/12 08:19:05;;;;;;;71.03;32.92;;;;;;;4.90;88.19;101793.72;5057604;28;20372;-70
2021/11/12 08:21:42;;;;;;;78.60;33.40;;;;;;;4.82;89.26;101785.84;5039190;28;20048;-70
2021/11/12 08:24:19;;;;;;;83.00;33.63;;;;;;;5.09;88.31;101777.69;5058258;28;20041;-70
2021/11/12 08:27:02;;;;;;;77.10;29.85;;;;;;;4.70;89.49;101763.81;5056689;28;20032;-71
2021/11/12 08:40:05;;;;;;;94.95;32.95;;;;;;;4.87;89.00;101739.38;5056860;28;20082;-70
2021/11/12 08:42:39;;;;;;;93.68;33.40;;;;;;;4.68;91.38;101765.66;5057109;28;20094;-70
2021/11/12 08:48:38;;;;;;;90.30;33.53;;;;;;;5.03;90.19;101746.59;5056186;28;20036;-70
2021/11/12 08:51:07;;;;;;;89.30;33.55;;;;;;;5.01;90.08;101733.13;5056016;28;20108;-70
2021/11/12 08:53:32;;;;;;;86.95;31.98;;;;;;;5.11;89.96;101744.22;5055960;28;20028;-69
2021/11/12 08:55:57;;;;;;;93.68;34.75;;;;;;;5.18;89.78;101750.47;5055822;28;20430;-70
2021/11/12 08:58:23;;;;;;;95.03;34.22;;;;;;;5.26;89.65;101742.13;5055889;28;20387;-70
2021/11/12 09:00:48;;;;;;;88.88;33.70;;;;;;;5.16;90.28;101745.47;5037920;28;20060;-70
2021/11/12 09:03:13;;;;;;;86.35;33.30;;;;;;;5.51;89.17;101746.00;5055805;28;20021;-70
2021/11/12 09:05:46;;;;;;;86.40;32.65;;;;;;;5.40;88.88;101744.34;5056004;28;20096;-69
2021/11/12 09:08:13;;;;;;;91.28;33.25;;;;;;;5.27;90.40;101725.84;5037795;28;20116;-70
2021/11/12 09:10:38;;;;;;;82.03;31.98;;;;;;;5.41;89.64;101728.03;5055412;28;20091;-69
2021/11/12 09:13:16;;;;;;;81.95;32.63;;;;;;;5.71;89.05;101721.22;5038415;28;20021;-69
2021/11/12 09:15:47;;;;;;;86.28;33.03;;;;;;;5.68;89.18;101731.75;5055668;28;20361;-69
2021/11/12 09:18:12;;;;;;;82.63;31.80;;;;;;;5.82;88.42;101726.25;5055546;28;20025;-70
2021/11/12 09:20:37;;;;;;;86.60;32.63;;;;;;;5.62;88.95;101728.78;5055322;28;20028;-70
2021/11/12 09:23:02;;;;;;;85.55;32.65;;;;;;;5.96;88.12;101723.34;5055362;28;20021;-69
2021/11/12 09:25:28;;;;;;;84.18;31.73;;;;;;;5.85;88.04;101713.97;5055708;28;20056;-70
2021/11/12 09:27:53;;;;;;;86.20;32.95;;;;;;;5.74;89.15;101715.84;5055337;28;20021;-69
2021/11/12 09:30:24;;;;;;;84.28;32.75;;;;;;;5.77;89.09;101708.69;5037421;28;20025;-69
2021/11/12 09:32:56;;;;;;;88.25;33.40;;;;;;;5.87;88.81;101706.97;5055276;28;20108;-69
2021/11/12 09:35:22;;;;;;;83.72;31.90;;;;;;;5.55;89.30;101703.78;5055189;28;20040;-69
2021/11/12 09:37:47;;;;;;;89.40;32.80;;;;;;;5.60;89.43;101710.13;5037119;28;20021;-69
2021/11/12 09:40:14;;;;;;;85.40;32.45;;;;;;;5.68;89.75;101696.66;5055065;28;20094;-69
2021/11/12 09:42:41;;;;;;;84.78;31.90;;;;;;;5.68;89.24;101701.78;5055038;28;20491;-69
2021/11/12 09:45:10;;;;;;;80.30;31.88;;;;;;;5.75;89.86;101694.38;5055014;28;20059;-69
2021/11/12 09:47:36;;;;;;;76.22;31.45;;;;;;;6.07;88.76;101692.41;5054870;28;20111;-69
2021/11/12 09:50:06;;;;;;;82.72;31.20;;;;;;;6.24;87.42;101690.09;5054866;28;20025;-70
2021/11/12 09:52:32;;;;;;;80.43;30.80;;;;;;;6.22;87.40;101690.25;5054666;28;20107;-70
2021/11/12 09:54:59;;;;;;;74.40;30.40;;;;;;;6.08;87.84;101688.91;5036794;28;20028;-69
2021/11/12 09:57:25;;;;;;;75.72;29.92;;;;;;;6.17;86.76;101677.00;5036844;28;20086;-68
2021/11/12 10:03:11;;;;;;;71.32;29.30;;;;;;;6.80;85.55;101678.25;5054684;28;20036;-69
2021/11/12 10:05:39;;;;;;;61.75;27.45;;;;;;;7.57;81.97;101684.81;5036729;28;20025;-70
2021/11/12 10:08:25;;;;;;;57.92;27.23;;;;;;;7.08;83.16;101686.78;5054637;28;20494;-68
2021/11/12 10:11:01;;;;;;;57.67;26.38;;;;;;;7.06;84.31;101686.97;5036584;28;20522;-69
2021/11/12 10:13:40;;;;;;;55.25;25.63;;;;;;;6.80;84.52;101685.97;5054497;28;20021;-69
2021/11/12 10:19:07;;;;;;;52.50;24.10;;;;;;;6.42;84.32;101659.44;5054728;28;20025;-68
2021/11/12 10:21:36;;;;;;;52.28;24.58;;;;;;;6.72;83.75;101671.25;5054419;28;20028;-68
2021/11/12 10:24:09;;;;;;;55.45;24.08;;;;;;;6.16;86.14;101677.13;5054138;28;20379;-69
2021/11/12 10:26:36;;;;;;;55.17;25.52;;;;;;;6.11;86.35;101672.41;5036361;28;20028;-70
2021/11/12 10:29:09;;;;;;;46.53;22.10;;;;;;;6.50;84.38;101664.66;5036273;28;20539;-70
2021/11/12 10:31:42;;;;;;;49.17;23.83;;;;;;;6.50;83.74;101665.50;5053509;28;20020;-71
2021/11/12 10:34:34;;;;;;;47.55;22.95;;;;;;;6.67;83.69;101652.88;5054045;28;20057;-71
2021/11/12 10:37:04;;;;;;;44.20;22.58;;;;;;;7.18;81.92;101652.41;5049164;28;20033;-70
2021/11/12 10:39:38;;;;;;;46.63;22.92;;;;;;;7.76;79.27;101660.72;5053997;28;20071;-70
2021/11/12 10:42:11;;;;;;;46.28;22.13;;;;;;;7.41;80.57;101650.25;5053764;28;20025;-70
2021/11/12 10:44:46;;;;;;;49.67;22.90;;;;;;;7.34;79.97;101654.34;5035897;28;20021;-71
2021/11/12 10:47:14;;;;;;;44.47;21.10;;;;;;;7.65;78.18;101648.84;5053829;28;20472;-70
2021/11/12 10:49:42;;;;;;;46.40;22.27;;;;;;;7.35;80.71;101640.53;5054299;28;20356;-69
2021/11/12 10:52:13;;;;;;;43.20;21.30;;;;;;;6.98;81.63;101633.69;5053762;28;20365;-69
2021/11/12 10:54:50;;;;;;;51.05;22.75;;;;;;;7.07;81.69;101632.03;5053475;28;20032;-69
2021/11/12 10:57:17;;;;;;;49.25;22.98;;;;;;;8.33;76.51;101632.84;5035524;28;20039;-70
2021/11/12 11:00:01;;;;;;;45.20;22.83;;;;;;;7.56;78.38;101629.16;5053344;28;20082;-71
2021/11/12 11:02:35;;;;;;;44.40;22.42;;;;;;;7.23;80.19;101614.22;5035520;28;20060;-71
2021/11/12 11:05:25;;;;;;;45.65;23.10;;;;;;;7.87;78.71;101616.75;5035572;28;20545;-72
2021/11/12 11:08:00;;;;;;;42.97;23.00;;;;;;;9.16;74.16;101609.91;5038792;28;20463;-72
2021/11/12 11:10:31;;;;;;;42.85;21.67;;;;;;;8.39;75.41;101603.94;5053245;28;20072;-71
2021/11/12 11:13:09;;;;;;;44.00;23.05;;;;;;;7.92;77.48;101583.66;5035232;28;20040;-71
2021/11/12 11:15:55;;;;;;;41.58;21.60;;;;;;;8.47;75.67;101577.44;5053129;28;20377;-72
2021/11/12 11:18:24;;;;;;;41.65;21.42;;;;;;;9.45;71.87;101565.63;5035346;28;20078;-71
2021/11/12 11:21:03;;;;;;;44.70;21.67;;;;;;;10.34;68.17;101555.41;5053196;28;20025;-70
2021/11/12 11:23:41;;;;;;;40.83;21.15;;;;;;;10.87;66.12;101553.88;5053676;28;20025;-72
2021/11/12 11:26:07;;;;;;;39.28;21.65;;;;;;;10.65;66.26;101539.94;5035134;28;20071;-70
2021/11/12 11:28:34;;;;;;;34.05;19.98;;;;;;;10.59;66.10;101535.47;5053158;28;20028;-71
2021/11/12 11:31:05;;;;;;;37.90;20.48;;;;;;;9.51;69.59;101524.69;5035108;28;20025;-70
2021/11/12 11:33:30;;;;;;;38.03;21.40;;;;;;;9.99;67.41;101525.59;5053151;28;20495;-69
2021/11/12 11:35:56;;;;;;;35.50;21.00;;;;;;;10.12;67.28;101531.84;5052877;28;20026;-69
2021/11/12 11:38:27;;;;;;;38.53;20.92;;;;;;;9.38;71.01;101517.41;5053208;28;20130;-71
2021/11/12 11:40:53;;;;;;;37.83;20.85;;;;;;;8.42;73.32;101513.47;5053016;28;20044;-69
2021/11/12 11:43:19;;;;;;;37.15;22.02;;;;;;;8.77;72.94;101509.91;5053450;28;20057;-69
2021/11/12 11:45:47;;;;;;;38.13;21.27;;;;;;;8.89;72.70;101500.13;5057150;28;20024;-70
2021/11/12 11:48:17;;;;;;;38.60;20.45;;;;;;;8.85;71.61;101505.75;5056989;28;20352;-70
2021/11/12 11:50:55;;;;;;;36.45;20.95;;;;;;;9.14;70.67;101513.84;5056939;28;20028;-70
2021/11/12 11:53:32;;;;;;;35.00;20.48;;;;;;;8.35;72.09;101497.81;5056845;28;20036;-69
2021/11/12 11:56:27;;;;;;;37.30;20.95;;;;;;;8.46;73.17;101493.38;5056560;28;20017;-71
2021/11/12 11:59:07;;;;;;;48.05;22.58;;;;;;;8.81;72.12;101493.16;5038959;28;20069;-71
2021/11/12 12:01:38;;;;;;;39.92;20.88;;;;;;;8.40;71.43;101468.22;5056983;28;20502;-69
2021/11/12 12:04:10;;;;;;;38.22;22.15;;;;;;;8.64;72.85;101480.41;5057766;28;20029;-70
2021/11/12 12:06:36;;;;;;;42.78;21.90;;;;;;;8.47;72.43;101485.50;5057127;28;20025;-71
2021/11/12 12:09:06;;;;;;;49.10;23.30;;;;;;;8.24;73.63;101480.06;5056552;28;20052;-71
2021/11/12 12:11:53;;;;;;;40.42;22.02;;;;;;;8.42;73.40;101480.00;5038900;28;20032;-70
2021/11/12 12:14:33;;;;;;;40.85;21.52;;;;;;;8.71;72.16;101477.03;5056880;28;20127;-70
2021/11/12 12:17:10;;;;;;;40.30;21.77;;;;;;;8.30;73.29;101469.13;5056555;28;20394;-69
2021/11/12 12:19:45;;;;;;;41.00;22.38;;;;;;;8.47;73.38;101466.66;5056941;28;20021;-70
2021/11/12 12:31:18;;;;;;;41.63;21.90;;;;;;;8.69;72.49;101442.91;5056601;28;20090;-71
2021/11/12 12:37:01;;;;;;;45.75;22.52;;;;;;;8.59;73.09;101437.88;5056592;28;20025;-69
2021/11/12 13:24:54;;;;;;;31.95;17.35;;;;;;;8.79;71.97;101345.63;5055730;28;20032;-69
2021/11/12 13:27:04;;;;;;;29.90;16.30;;;;;;;8.73;72.45;101345.47;5046250;28;20043;-69
2021/11/12 13:29:31;;;;;;;31.05;16.98;;;;;;;8.93;71.50;101345.94;5055577;28;20111;-68
2021/11/12 13:31:59;;;;;;;30.90;17.00;;;;;;;8.85;71.64;101328.69;5055236;28;20103;-68
2021/11/12 13:34:27;;;;;;;28.10;16.65;;;;;;;8.83;71.65;101328.06;5055170;28;20033;-70
2021/11/12 13:36:52;;;;;;;28.58;16.77;;;;;;;8.78;71.36;101312.28;5055051;28;20119;-69
2021/11/12 13:39:21;;;;;;;29.73;16.17;;;;;;;8.88;71.38;101312.91;5055344;28;20447;-69
2021/11/12 13:41:49;;;;;;;30.27;16.27;;;;;;;8.85;71.30;101318.38;5055212;28;20414;-68
2021/11/12 13:44:20;;;;;;;28.20;16.38;;;;;;;8.75;71.80;101302.31;5054944;28;20099;-69
2021/11/12 13:47:03;;;;;;;36.22;17.40;;;;;;;8.65;72.44;101312.75;5055241;28;20017;-70
2021/11/12 13:49:48;;;;;;;31.48;17.20;;;;;;;8.70;72.38;101295.03;5054962;28;20032;-70
2021/11/12 13:52:13;;;;;;;62.83;18.38;;;;;;;8.85;72.00;101296.97;5054822;28;20028;-69
2021/11/12 13:54:46;;;;;;;37.05;17.52;;;;;;;8.82;71.53;101264.59;5054795;28;20029;-69
2021/11/12 13:57:15;;;;;;;30.67;17.45;;;;;;;8.75;71.80;101281.69;5054828;28;20104;-69
2021/11/12 14:00:05;;;;;;;35.13;16.38;;;;;;;8.77;71.71;101277.16;5054804;28;20025;-69
2021/11/12 14:02:50;;;;;;;34.50;17.60;;;;;;;8.85;71.16;101291.81;5055299;28;20029;-69
2021/11/12 14:05:15;;;;;;;29.30;16.98;;;;;;;8.81;71.24;101281.84;5054981;28;20043;-69
2021/11/12 14:07:43;;;;;;;33.15;16.73;;;;;;;8.89;71.72;101278.44;5036019;28;20053;-69
2021/11/12 14:10:12;;;;;;;31.83;17.70;;;;;;;8.90;71.50;101274.09;5033274;28;20081;-69
2021/11/12 14:12:55;;;;;;;30.70;17.50;;;;;;;8.78;71.60;101268.47;5034687;28;20025;-69
2021/11/12 14:15:34;;;;;;;28.98;16.17;;;;;;;8.69;71.99;101272.84;5034715;28;20025;-68
2021/11/12 14:18:16;;;;;;;30.30;17.05;;;;;;;8.98;71.18;101280.03;5034484;28;20036;-69
2021/11/12 14:20:54;;;;;;;29.75;16.70;;;;;;;8.97;71.49;101285.34;5033267;28;20033;-69
2021/11/12 14:23:25;;;;;;;30.75;16.73;;;;;;;8.97;71.48;101268.09;5034433;28;20034;-67
2021/11/12 14:26:20;;;;;;;32.97;16.88;;;;;;;9.04;70.60;101271.66;5034654;28;20468;-69
2021/11/12 14:37:15;;;;;;;29.20;17.05;;;;;;;8.91;71.65;101262.81;5034683;28;20033;-68
2021/11/12 14:40:04;;;;;;;31.23;17.17;;;;;;;8.98;71.25;101249.13;5034572;28;20155;-66
2021/11/12 14:51:07;;;;;;;36.28;17.95;;;;;;;8.93;71.92;101241.06;5036317;28;20029;-70
2021/11/12 14:53:40;;;;;;;33.97;18.30;;;;;;;8.82;72.46;101238.81;5034268;28;20051;-69
2021/11/12 14:56:15;;;;;;;33.53;18.13;;;;;;;8.81;72.86;101225.13;5035482;28;20032;-70
2021/11/12 14:58:48;;;;;;;33.75;18.70;;;;;;;8.93;72.33;101228.19;5034957;28;20025;-69
2021/11/12 15:01:19;;;;;;;33.75;18.90;;;;;;;8.84;72.83;101224.00;5033084;28;20029;-70
2021/11/12 15:03:46;;;;;;;35.03;19.20;;;;;;;8.74;72.77;101219.03;5034068;28;20028;-68
2021/11/12 15:06:16;;;;;;;36.63;19.75;;;;;;;8.82;72.95;101210.47;5034028;28;20028;-68
2021/11/12 15:09:05;;;;;;;37.90;18.67;;;;;;;8.77;73.38;101213.53;5036597;28;20526;-70
2021/11/12 15:11:29;;;;;;;35.75;18.38;;;;;;;8.75;73.08;101218.06;5054039;28;20162;-71
2021/11/12 15:14:08;;;;;;;31.05;18.70;;;;;;;8.59;73.76;101213.72;5053693;28;20033;-70
2021/11/12 15:16:35;;;;;;;37.92;19.58;;;;;;;8.72;73.92;101228.72;5035600;28;20035;-70
2021/11/12 15:19:04;;;;;;;31.30;18.33;;;;;;;8.71;73.75;101229.66;5053565;28;20127;-70
2021/11/12 15:21:34;;;;;;;35.17;19.27;;;;;;;8.46;74.10;101202.31;5035464;28;20056;-70
2021/11/12 15:31:50;;;;;;;34.28;19.38;;;;;;;8.49;74.63;101205.38;5053417;28;20029;-70
2021/11/12 15:34:15;;;;;;;37.05;19.80;;;;;;;8.56;74.39;101196.03;5035375;28;20110;-69
2021/11/12 15:36:48;;;;;;;36.72;20.00;;;;;;;8.47;75.13;101194.44;5053093;28;20444;-70
2021/11/12 15:39:21;;;;;;;36.90;19.95;;;;;;;8.41;74.94;101189.94;5004630;28;20024;-69
2021/11/12 15:44:24;;;;;;;34.60;19.48;;;;;;;8.41;75.08;101177.06;5053513;28;19912;-69
2021/11/12 15:46:52;;;;;;;38.15;20.23;;;;;;;8.34;75.59;101178.63;5053583;28;20025;-70
2021/11/12 15:49:23;;;;;;;34.72;20.23;;;;;;;8.25;75.90;101172.69;5035171;28;20059;-70
2021/11/12 15:52:07;;;;;;;38.47;21.52;;;;;;;8.31;75.98;101163.50;5053101;28;20078;-71
2021/11/12 15:54:48;;;;;;;39.75;19.45;;;;;;;8.11;77.22;101158.72;5035079;28;20017;-72
2021/11/12 16:05:25;;;;;;;37.00;20.30;;;;;;;8.16;76.61;101154.84;5053615;28;20036;-71
2021/11/12 16:13:27;;;;;;;35.70;20.65;;;;;;;8.11;76.78;101153.56;5053307;28;20171;-71
2021/11/12 16:18:28;;;;;;;40.45;19.90;;;;;;;8.22;77.19;101160.13;5053276;28;20045;-73
2021/11/12 16:21:16;;;;;;;36.70;20.33;;;;;;;8.24;77.26;101152.25;5034948;28;20066;-71